Time;durP1;ratioP1;P1;durP2;ratioP2;P2;SDS_P1;SDS_P2;PMS_P1;PMS_P2;Temp;Humidity;BMP_temperature;BMP_pressure;BME280_temperature;BME280_humidity;BME280_pressure;Samples;Min_cycle;Max_cycle;Signal;HPM_P1;HPM_P2
2022/10/23 00:01:30;;;;;;;20.58;4.88;;;;;;;14.78;80.49;99507.63;5057112;28;20099;-50
2022/10/23 00:04:00;;;;;;;16.85;4.72;;;;;;;14.77;80.67;99511.13;5060236;28;20048;-55
2022/10/23 00:06:28;;;;;;;19.63;3.65;;;;;;;14.74;80.43;99500.75;5090209;28;20607;-53
2022/10/23 00:08:55;;;;;;;16.42;4.72;;;;;;;14.72;80.97;99507.75;5058538;28;20040;-51
2022/10/23 00:11:25;;;;;;;16.50;4.55;;;;;;;14.72;80.68;99502.53;5057940;28;20450;-49
2022/10/23 00:13:55;;;;;;;19.52;5.57;;;;;;;14.70;80.53;99501.75;5053744;28;20056;-53
2022/10/23 00:16:22;;;;;;;17.67;5.10;;;;;;;14.64;80.12;99495.81;5050247;28;20056;-49
2022/10/23 00:18:49;;;;;;;19.35;4.40;;;;;;;14.64;80.50;99495.81;5054965;28;20049;-53
2022/10/23 00:21:17;;;;;;;15.15;5.60;;;;;;;14.62;80.58;99492.38;5055803;28;20522;-51
2022/10/23 00:23:45;;;;;;;25.63;4.63;;;;;;;14.61;80.10;99493.28;5052889;28;20067;-48
2022/10/23 00:26:14;;;;;;;23.65;4.68;;;;;;;14.60;80.64;99494.19;5055102;28;20151;-53
2022/10/23 00:28:43;;;;;;;18.58;4.28;;;;;;;14.55;80.67;99488.25;5055881;28;20481;-49
2022/10/23 00:31:12;;;;;;;16.45;5.40;;;;;;;14.54;80.35;99481.31;5055904;28;20060;-50
2022/10/23 00:33:40;;;;;;;17.95;5.25;;;;;;;14.51;80.14;99474.44;5052330;28;20056;-51
2022/10/23 00:36:10;;;;;;;20.10;5.70;;;;;;;14.48;80.83;99463.25;5038588;28;20052;-49
2022/10/23 00:38:37;;;;;;;16.83;5.43;;;;;;;14.46;80.35;99459.84;5053777;28;20420;-54
2022/10/23 00:41:05;;;;;;;25.75;5.25;;;;;;;14.45;80.96;99455.53;5055902;28;20043;-54
2022/10/23 00:43:32;;;;;;;21.58;6.60;;;;;;;14.45;80.84;99458.16;5040799;28;20051;-51
2022/10/23 00:45:59;;;;;;;24.52;5.07;;;;;;;14.44;80.46;99452.06;5042151;28;20478;-49
2022/10/23 00:48:27;;;;;;;27.15;4.95;;;;;;;14.46;80.00;99454.63;5039773;28;20049;-51
2022/10/23 00:50:54;;;;;;;33.45;6.05;;;;;;;14.46;80.29;99460.69;5045045;28;20051;-53
2022/10/23 00:53:22;;;;;;;31.70;6.00;;;;;;;14.45;80.44;99452.94;5049654;28;20048;-54
2022/10/23 00:55:52;;;;;;;21.08;5.18;;;;;;;14.46;79.89;99444.22;5041986;28;20160;-54
2022/10/23 00:58:20;;;;;;;19.13;6.05;;;;;;;14.47;79.93;99445.91;5040291;28;20129;-54
2022/10/23 01:00:50;;;;;;;26.05;5.28;;;;;;;14.48;79.78;99445.88;5040197;28;20076;-53
2022/10/23 01:03:20;;;;;;;22.63;5.95;;;;;;;14.48;80.10;99431.97;5043055;28;20073;-53
2022/10/23 01:08:51;;;;;;;24.38;4.70;;;;;;;14.46;79.87;99428.59;5077043;27;20625;-49
2022/10/23 01:11:25;;;;;;;23.02;4.70;;;;;;;14.45;80.20;99425.09;5049274;28;20643;-49
2022/10/23 01:19:49;;;;;;;23.02;5.70;;;;;;;14.38;80.16;99414.03;5082917;27;20126;-51
2022/10/23 01:22:47;;;;;;;27.92;6.38;;;;;;;14.37;80.11;99407.09;5077656;28;20767;-49
2022/10/23 01:27:59;;;;;;;23.13;4.78;;;;;;;14.38;79.99;99393.19;5088582;27;20502;-51
2022/10/23 01:30:25;;;;;;;23.83;4.57;;;;;;;14.40;79.34;99393.97;5053832;28;20071;-54
2022/10/23 01:33:00;;;;;;;16.45;4.20;;;;;;;14.41;79.87;99392.22;5047705;28;20168;-55
2022/10/23 01:40:48;;;;;;;26.02;4.32;;;;;;;14.38;79.63;99387.97;5059533;27;20134;-51
2022/10/23 01:43:25;;;;;;;30.30;4.80;;;;;;;14.37;79.51;99382.81;5052861;28;20547;-53
2022/10/23 01:45:57;;;;;;;26.23;4.82;;;;;;;14.37;79.54;99370.63;5058727;28;20049;-56
2022/10/23 01:48:27;;;;;;;23.70;5.35;;;;;;;14.36;79.55;99370.69;5055293;28;20076;-55
2022/10/23 01:50:57;;;;;;;26.83;5.38;;;;;;;14.35;79.44;99374.16;5053776;28;20118;-48
2022/10/23 01:53:29;;;;;;;33.47;5.80;;;;;;;14.34;79.78;99360.31;5055200;28;20080;-54
2022/10/23 01:55:58;;;;;;;26.13;5.78;;;;;;;14.31;79.47;99357.78;5058024;28;20128;-51
2022/10/23 01:58:27;;;;;;;37.40;5.80;;;;;;;14.29;79.29;99349.19;5057185;28;20123;-53
2022/10/23 02:01:00;;;;;;;38.00;5.32;;;;;;;14.26;79.45;99346.66;5058335;28;20072;-56
2022/10/23 02:03:29;;;;;;;31.98;5.68;;;;;;;14.21;80.41;99343.31;5054233;28;20053;-52
2022/10/23 02:05:56;;;;;;;23.88;6.47;;;;;;;14.20;79.97;99345.09;5057198;28;20500;-50
2022/10/23 02:08:24;;;;;;;38.90;7.57;;;;;;;14.18;79.88;99335.63;5061049;28;20051;-50
2022/10/23 02:11:03;;;;;;;33.50;7.18;;;;;;;14.17;79.53;99339.97;5053476;28;20049;-53
2022/10/23 02:16:42;;;;;;;75.65;8.20;;;;;;;14.08;80.01;99341.06;5086166;27;22854;-51
2022/10/23 02:22:10;;;;;;;133.52;9.40;;;;;;;14.06;80.02;99332.47;5059976;27;20477;-50
2022/10/23 02:24:44;;;;;;;122.65;11.05;;;;;;;14.05;79.19;99320.31;5036859;28;20147;-50
2022/10/23 02:27:15;;;;;;;130.90;10.93;;;;;;;14.06;80.09;99326.41;5032637;28;20067;-50
2022/10/23 02:29:47;;;;;;;88.03;8.98;;;;;;;14.04;79.75;99313.41;5038345;28;20061;-48
2022/10/23 02:32:17;;;;;;;136.55;11.48;;;;;;;14.03;79.77;99306.50;5034215;28;20058;-45
2022/10/23 02:34:44;;;;;;;98.93;9.63;;;;;;;14.02;79.84;99304.81;5039505;28;20041;-51
2022/10/23 02:37:10;;;;;;;158.00;11.25;;;;;;;14.01;80.17;99303.09;5050886;28;20098;-51
2022/10/23 02:39:38;;;;;;;86.93;9.02;;;;;;;14.02;80.01;99294.41;5050851;28;20042;-53
2022/10/23 02:44:59;;;;;;;68.80;8.05;;;;;;;13.99;79.60;99284.06;5097999;27;20130;-51
2022/10/23 02:47:51;;;;;;;40.65;7.18;;;;;;;14.00;79.72;99280.56;5071294;28;20080;-54
2022/10/23 02:50:28;;;;;;;57.53;7.00;;;;;;;14.00;79.91;99270.16;5073668;28;20063;-48
2022/10/23 02:58:44;;;;;;;45.42;9.50;;;;;;;13.97;79.24;99254.59;5023629;28;20134;-53
2022/10/23 03:01:15;;;;;;;34.88;8.60;;;;;;;14.01;79.87;99251.88;4964583;28;20071;-54
2022/10/23 03:03:50;;;;;;;35.15;8.85;;;;;;;14.01;80.04;99243.19;4988566;28;20047;-52
2022/10/23 03:06:16;;;;;;;34.78;9.50;;;;;;;14.00;79.63;99238.91;4968477;28;20053;-52
2022/10/23 03:08:48;;;;;;;33.92;8.00;;;;;;;14.00;79.33;99233.69;4966021;28;20402;-53
2022/10/23 03:11:15;;;;;;;38.90;7.07;;;;;;;14.01;79.92;99232.78;4959579;28;20462;-51
2022/10/23 03:13:42;;;;;;;26.73;8.40;;;;;;;14.00;79.34;99231.09;4981837;28;20046;-49
2022/10/23 03:16:08;;;;;;;24.15;7.95;;;;;;;13.99;79.40;99225.03;4979857;28;20293;-52
2022/10/23 03:18:35;;;;;;;30.38;8.30;;;;;;;13.99;79.82;99221.59;4985603;28;20050;-52
2022/10/23 03:21:02;;;;;;;34.80;7.95;;;;;;;13.97;79.80;99215.56;4992175;28;20044;-49
2022/10/23 03:23:29;;;;;;;25.50;8.77;;;;;;;13.98;79.56;99214.66;4987216;28;20048;-51
2022/10/23 03:25:55;;;;;;;23.90;7.35;;;;;;;13.97;79.50;99212.97;4986717;28;20058;-51
2022/10/23 03:28:22;;;;;;;28.65;8.73;;;;;;;13.97;79.44;99203.41;4986840;28;20081;-50
2022/10/23 03:30:49;;;;;;;29.55;8.38;;;;;;;13.97;80.16;99202.53;4982297;28;20059;-49
2022/10/23 03:33:15;;;;;;;31.45;7.38;;;;;;;13.98;79.34;99188.63;4982295;28;20133;-52
2022/10/23 03:35:42;;;;;;;32.42;6.75;;;;;;;13.98;79.55;99189.47;4987190;28;20751;-50
2022/10/23 03:38:09;;;;;;;29.63;7.72;;;;;;;13.98;79.97;99189.47;4982164;28;20405;-53
2022/10/23 03:40:35;;;;;;;22.77;7.63;;;;;;;13.97;79.46;99186.94;4980540;28;20053;-50
2022/10/23 03:43:02;;;;;;;17.88;7.95;;;;;;;13.97;79.78;99181.72;4982992;28;20501;-49
2022/10/23 03:45:29;;;;;;;24.98;8.80;;;;;;;13.96;80.11;99169.59;4988102;28;20062;-51
2022/10/23 03:47:56;;;;;;;26.52;7.78;;;;;;;13.95;79.70;99165.31;4985733;28;20133;-50
2022/10/23 03:50:22;;;;;;;27.45;8.18;;;;;;;13.95;80.05;99157.50;4992320;28;20056;-48
2022/10/23 03:52:50;;;;;;;31.20;8.52;;;;;;;13.93;80.23;99128.91;4986980;28;20102;-50
2022/10/23 03:55:16;;;;;;;30.45;7.35;;;;;;;13.94;80.09;99103.72;4983024;28;20501;-53
2022/10/23 03:57:43;;;;;;;24.27;7.20;;;;;;;13.94;79.64;99093.31;4981696;28;20045;-51
2022/10/23 04:00:10;;;;;;;21.80;6.78;;;;;;;13.93;79.78;99084.66;4983336;28;20077;-52
2022/10/23 04:02:36;;;;;;;33.40;8.70;;;;;;;13.93;80.29;99086.41;4986461;28;20060;-54
2022/10/23 04:05:03;;;;;;;20.63;5.95;;;;;;;13.88;80.26;99084.78;4989640;28;20502;-50
2022/10/23 04:07:30;;;;;;;16.63;4.65;;;;;;;13.87;80.23;99090.03;4976838;28;20501;-51
2022/10/23 04:09:56;;;;;;;29.48;7.05;;;;;;;13.82;80.49;99100.59;4974721;28;20069;-51
2022/10/23 04:12:23;;;;;;;19.17;7.70;;;;;;;13.75;80.76;99099.94;4975613;28;20043;-52
2022/10/23 04:14:50;;;;;;;24.77;7.65;;;;;;;13.71;81.31;99102.72;4979237;28;20074;-52
2022/10/23 04:17:16;;;;;;;24.83;7.13;;;;;;;13.68;81.84;99111.44;4969489;28;20138;-51
2022/10/23 04:19:43;;;;;;;22.05;6.60;;;;;;;13.65;81.82;99113.28;4972313;28;20046;-48
2022/10/23 04:22:09;;;;;;;20.25;7.05;;;;;;;13.67;80.98;99111.47;4969852;28;20074;-48
2022/10/23 04:24:36;;;;;;;22.75;6.75;;;;;;;13.66;81.55;99099.38;4977418;28;20093;-49
2022/10/23 04:27:03;;;;;;;23.05;6.57;;;;;;;13.68;81.31;99093.22;4976656;28;20078;-51
2022/10/23 04:29:31;;;;;;;23.83;7.18;;;;;;;13.71;81.35;99079.28;4972201;28;20713;-53
2022/10/23 04:31:58;;;;;;;22.33;7.40;;;;;;;13.73;80.81;99080.06;4969952;28;20138;-48
2022/10/23 04:34:24;;;;;;;24.27;6.18;;;;;;;13.75;80.99;99073.09;4968990;28;20047;-51
2022/10/23 04:36:51;;;;;;;17.65;5.88;;;;;;;13.77;81.59;99073.88;4973521;28;20078;-51
2022/10/23 04:39:18;;;;;;;21.98;6.40;;;;;;;13.80;81.39;99065.97;4969560;28;20049;-53
2022/10/23 04:41:44;;;;;;;19.75;6.55;;;;;;;13.81;80.82;99061.63;4970146;28;20050;-54
2022/10/23 04:44:11;;;;;;;18.33;6.30;;;;;;;13.79;81.65;99059.06;4977247;28;20133;-52
2022/10/23 04:46:37;;;;;;;15.85;5.82;;;;;;;13.84;81.24;99057.16;4976302;28;20148;-48
2022/10/23 04:49:04;;;;;;;17.63;6.03;;;;;;;13.84;81.47;99051.97;4974667;28;20494;-53
2022/10/23 04:51:30;;;;;;;18.77;6.32;;;;;;;13.85;81.25;99048.44;4969282;28;20079;-50
2022/10/23 04:53:57;;;;;;;22.27;6.50;;;;;;;13.84;80.28;99031.13;4973103;28;20046;-52
2022/10/23 04:56:24;;;;;;;20.30;6.75;;;;;;;13.85;80.76;99027.63;4974930;28;20050;-47
2022/10/23 04:58:51;;;;;;;20.80;6.57;;;;;;;13.85;81.30;99027.63;4974167;28;20054;-50
2022/10/23 05:01:18;;;;;;;14.48;5.53;;;;;;;13.85;80.77;99019.81;4982855;28;20150;-46
2022/10/23 05:03:44;;;;;;;17.38;5.57;;;;;;;13.86;80.26;99012.88;4973098;28;20129;-49
2022/10/23 05:06:11;;;;;;;25.15;5.68;;;;;;;13.85;80.81;99012.00;4973104;28;20049;-50
2022/10/23 05:08:38;;;;;;;18.95;6.38;;;;;;;13.84;80.36;99012.91;4981153;28;20770;-52
2022/10/23 05:11:04;;;;;;;17.70;5.78;;;;;;;13.85;80.31;99022.41;4972582;28;20046;-51
2022/10/23 05:13:31;;;;;;;17.88;5.57;;;;;;;13.86;80.97;99023.28;4986326;28;20484;-50
2022/10/23 05:15:58;;;;;;;20.73;5.22;;;;;;;13.86;81.24;99029.34;4970235;28;20066;-51
2022/10/23 05:18:33;;;;;;;13.88;5.78;;;;;;;13.84;80.58;99023.34;4979731;28;20054;-52
2022/10/23 05:21:21;;;;;;;18.15;5.97;;;;;;;13.79;80.97;99022.63;4971501;28;20134;-49
2022/10/23 05:23:48;;;;;;;13.73;5.07;;;;;;;13.81;81.01;99014.78;4967923;28;20050;-51
2022/10/23 05:26:14;;;;;;;12.27;6.57;;;;;;;13.82;80.93;99017.31;4972372;28;20051;-52
2022/10/23 05:28:41;;;;;;;12.10;6.00;;;;;;;13.81;80.75;99004.38;4978448;28;20080;-52
2022/10/23 05:31:08;;;;;;;16.08;6.40;;;;;;;13.82;80.93;99004.28;4966517;28;20053;-51
2022/10/23 05:33:35;;;;;;;16.33;5.43;;;;;;;13.85;80.90;99001.59;4966262;28;20074;-49
2022/10/23 05:36:03;;;;;;;15.52;5.03;;;;;;;13.86;80.78;98998.13;4965252;28;20054;-47
2022/10/23 05:38:33;;;;;;;14.40;5.22;;;;;;;13.89;80.63;98986.75;4972854;28;21423;-52
2022/10/23 05:41:00;;;;;;;15.00;5.93;;;;;;;13.90;81.00;98974.56;4965133;28;20061;-50
2022/10/23 05:43:29;;;;;;;16.17;5.90;;;;;;;13.91;80.76;98978.91;4972514;28;20046;-51
2022/10/23 05:45:57;;;;;;;15.63;5.28;;;;;;;13.91;80.73;98978.91;4969324;28;20092;-49
2022/10/23 05:48:23;;;;;;;15.57;6.13;;;;;;;13.88;81.22;98980.69;4968592;28;20081;-55
2022/10/23 05:51:03;;;;;;;16.45;5.60;;;;;;;13.88;80.40;98980.69;4964336;28;20073;-51
2022/10/23 05:53:29;;;;;;;14.90;5.28;;;;;;;13.84;80.50;98973.03;4973987;28;20497;-46
2022/10/23 05:56:03;;;;;;;14.30;4.97;;;;;;;13.85;80.71;98977.34;4968954;28;20147;-52
2022/10/23 05:58:29;;;;;;;13.18;4.72;;;;;;;13.78;80.96;98997.50;4967599;28;20060;-51
2022/10/23 06:00:56;;;;;;;12.95;4.63;;;;;;;13.70;82.18;99025.53;4958365;28;20050;-51
2022/10/23 06:03:23;;;;;;;12.25;5.70;;;;;;;13.66;82.45;99018.72;4972672;28;20043;-54
2022/10/23 06:05:50;;;;;;;11.88;4.40;;;;;;;13.52;83.90;99020.03;4961872;28;20418;-51
2022/10/23 06:08:17;;;;;;;14.43;4.63;;;;;;;13.67;82.59;99017.81;4973535;28;20070;-51
2022/10/23 06:10:44;;;;;;;17.13;3.67;;;;;;;13.70;83.09;99017.72;4976946;28;20509;-52
2022/10/23 06:13:10;;;;;;;8.27;4.25;;;;;;;13.69;82.88;99036.84;4965887;28;20143;-51
2022/10/23 06:15:37;;;;;;;12.27;5.20;;;;;;;13.62;82.72;99050.03;4968400;28;20141;-49
2022/10/23 06:18:04;;;;;;;14.32;4.88;;;;;;;13.58;83.18;99061.44;4970302;28;20100;-51
2022/10/23 06:20:34;;;;;;;10.27;5.88;;;;;;;13.57;83.83;99074.50;4973326;28;20142;-50
2022/10/23 06:23:01;;;;;;;21.35;5.32;;;;;;;13.55;84.49;99056.34;4970490;28;20137;-47
2022/10/23 06:25:27;;;;;;;13.70;4.78;;;;;;;13.58;84.99;99045.00;4976839;28;20078;-49
2022/10/23 06:27:54;;;;;;;9.88;4.70;;;;;;;13.53;85.52;99032.13;4965513;28;20820;-47
2022/10/23 06:30:20;;;;;;;8.68;4.00;;;;;;;13.57;85.03;99028.53;4966891;28;20514;-49
2022/10/23 06:32:47;;;;;;;10.27;4.15;;;;;;;13.68;85.08;99009.13;4971968;28;20042;-49
2022/10/23 06:35:14;;;;;;;8.90;4.30;;;;;;;13.75;85.26;99010.63;4972831;28;20529;-50
2022/10/23 06:37:40;;;;;;;14.20;5.32;;;;;;;13.79;84.25;98991.41;4977290;28;20574;-51
2022/10/23 06:40:07;;;;;;;10.93;4.43;;;;;;;13.79;84.83;98974.94;4972441;28;20052;-50
2022/10/23 06:42:34;;;;;;;14.02;5.00;;;;;;;13.78;84.16;98973.25;4967186;28;20076;-49
2022/10/23 06:45:01;;;;;;;12.55;5.30;;;;;;;13.76;85.25;98957.69;4971863;28;20076;-50
2022/10/23 06:47:32;;;;;;;13.77;6.88;;;;;;;13.82;84.37;98960.06;4970750;28;20038;-50
2022/10/23 06:49:59;;;;;;;17.42;5.65;;;;;;;13.84;84.08;98947.84;4970572;28;20054;-48
2022/10/23 06:52:25;;;;;;;12.15;5.18;;;;;;;13.81;84.37;98945.34;4974110;28;20133;-48
2022/10/23 06:55:12;;;;;;;12.40;4.75;;;;;;;13.86;83.86;98929.59;4972215;28;20046;-47
2022/10/23 06:57:39;;;;;;;8.95;5.05;;;;;;;13.90;83.87;98917.31;4974993;28;20474;-46
2022/10/23 07:00:06;;;;;;;16.27;5.22;;;;;;;13.93;83.49;98922.41;4969139;28;20047;-51
2022/10/23 07:02:33;;;;;;;12.10;5.40;;;;;;;13.94;82.99;98916.28;4961119;28;20074;-47
2022/10/23 07:05:00;;;;;;;12.57;5.13;;;;;;;13.93;83.58;98914.59;4970473;28;20042;-51
2022/10/23 07:07:29;;;;;;;7.78;4.60;;;;;;;13.96;83.38;98914.50;4973713;28;20074;-49
2022/10/23 07:09:55;;;;;;;5.35;3.42;;;;;;;13.83;84.64;98920.13;4973627;28;20054;-48
2022/10/23 07:12:22;;;;;;;11.43;4.00;;;;;;;13.90;84.56;98909.50;4973759;28;20066;-47
2022/10/23 07:14:49;;;;;;;8.88;2.15;;;;;;;13.90;84.44;98904.28;4976710;28;20481;-47
2022/10/23 07:17:16;;;;;;;7.15;4.13;;;;;;;13.88;84.56;98900.00;4969901;28;20134;-47
2022/10/23 07:19:42;;;;;;;9.63;3.95;;;;;;;13.91;84.35;98880.81;4972520;28;20081;-48
2022/10/23 07:22:09;;;;;;;9.85;4.00;;;;;;;13.95;84.57;98878.97;4973159;28;20079;-49
2022/10/23 07:24:41;;;;;;;11.25;4.18;;;;;;;13.98;83.67;98864.06;4972284;28;20375;-46
2022/10/23 07:27:07;;;;;;;9.85;4.10;;;;;;;13.98;84.76;98882.31;4968810;28;20474;-48
2022/10/23 07:29:34;;;;;;;8.02;4.35;;;;;;;14.00;83.82;98911.75;4974726;28;20494;-48
2022/10/23 07:32:00;;;;;;;8.77;3.75;;;;;;;14.04;84.05;98890.78;4974239;28;20053;-50
2022/10/23 07:34:27;;;;;;;8.63;3.42;;;;;;;14.03;84.25;98886.50;4966861;28;20066;-48
2022/10/23 07:36:55;;;;;;;9.38;2.88;;;;;;;14.07;83.83;98886.34;4967485;28;20074;-48
2022/10/23 07:39:22;;;;;;;7.75;3.28;;;;;;;14.09;84.01;98874.09;4965697;28;20494;-50
2022/10/23 07:41:49;;;;;;;7.53;2.95;;;;;;;14.05;84.27;98892.50;4975645;28;20052;-48
2022/10/23 07:44:16;;;;;;;9.55;2.75;;;;;;;14.05;84.51;98885.53;4970540;28;20247;-49
2022/10/23 07:46:42;;;;;;;7.30;3.30;;;;;;;14.04;84.36;98891.66;4972181;28;20089;-49
2022/10/23 07:49:10;;;;;;;5.97;2.70;;;;;;;14.06;83.99;98895.06;4973980;28;20074;-51
2022/10/23 07:51:36;;;;;;;9.88;3.45;;;;;;;14.03;84.22;98905.56;4969670;28;20050;-48
2022/10/23 07:54:03;;;;;;;5.35;3.17;;;;;;;14.00;84.35;98896.13;4980027;28;20129;-51
2022/10/23 07:56:30;;;;;;;5.78;3.17;;;;;;;13.94;84.72;98895.47;4973040;28;20132;-50
2022/10/23 07:58:57;;;;;;;5.35;2.95;;;;;;;13.94;84.67;98875.50;4971085;28;20100;-53
2022/10/23 08:01:32;;;;;;;5.07;2.42;;;;;;;13.91;84.85;98879.97;4966732;28;20341;-50
2022/10/23 08:04:00;;;;;;;3.55;2.10;;;;;;;13.90;84.77;98880.88;4966767;28;20054;-50
2022/10/23 08:06:27;;;;;;;6.65;3.05;;;;;;;13.92;84.33;98879.06;4974522;28;20121;-48
2022/10/23 08:08:53;;;;;;;6.78;3.47;;;;;;;13.97;84.35;98871.94;4971656;28;20054;-48
2022/10/23 08:11:26;;;;;;;2.38;2.17;;;;;;;13.88;84.67;98879.19;4973833;28;20089;-47
2022/10/23 08:13:54;;;;;;;3.78;1.77;;;;;;;13.89;85.36;98887.84;4971540;28;20047;-47
2022/10/23 08:16:22;;;;;;;3.53;2.17;;;;;;;13.90;84.70;98891.28;4969824;28;20089;-50
2022/10/23 08:18:49;;;;;;;5.80;2.67;;;;;;;13.94;84.77;98885.91;4984945;28;20054;-50
2022/10/23 08:21:17;;;;;;;6.18;2.67;;;;;;;13.86;84.73;98898.34;4972613;28;20050;-48
2022/10/23 08:23:44;;;;;;;2.65;2.45;;;;;;;13.95;84.95;98886.78;4971723;28;20059;-53
2022/10/23 08:26:10;;;;;;;4.65;2.17;;;;;;;13.86;85.41;98886.22;4964638;28;20078;-51
2022/10/23 08:28:37;;;;;;;3.10;1.77;;;;;;;13.82;85.89;98887.19;4968046;28;20070;-48
2022/10/23 08:31:11;;;;;;;2.65;2.45;;;;;;;13.86;85.16;98899.22;4967067;28;20058;-51
2022/10/23 08:33:38;;;;;;;4.35;2.70;;;;;;;13.95;85.30;98886.78;4976820;28;20081;-51
2022/10/23 08:36:16;;;;;;;2.97;2.72;;;;;;;13.94;85.03;98890.25;4984220;28;20233;-52
2022/10/23 08:38:42;;;;;;;3.50;2.63;;;;;;;13.96;85.45;98893.69;4974499;28;20072;-49
2022/10/23 08:44:39;;;;;;;2.35;0.60;;;;;;;13.82;85.51;98891.56;5033758;27;20748;-46
2022/10/23 08:50:01;;;;;;;5.57;1.60;;;;;;;14.29;83.94;98889.91;5077869;27;20406;-50
2022/10/23 08:52:36;;;;;;;3.22;0.85;;;;;;;14.23;84.66;98888.38;5056397;28;20135;-49
2022/10/23 08:55:23;;;;;;;2.70;2.40;;;;;;;14.22;84.41;98884.09;5060427;28;20128;-48
2022/10/23 09:00:29;;;;;;;2.75;1.05;;;;;;;14.29;84.68;98901.19;5103252;27;20444;-46
2022/10/23 09:02:55;;;;;;;1.48;0.43;;;;;;;14.29;84.09;98890.78;5060710;28;20496;-50
2022/10/23 09:19:15;;;;;;;1.67;0.80;;;;;;;14.21;84.39;98773.00;5091888;27;20123;-47
2022/10/23 09:21:48;;;;;;;1.85;0.93;;;;;;;14.17;84.52;98755.78;5046953;28;20596;-51
2022/10/23 09:24:18;;;;;;;1.90;1.13;;;;;;;14.18;84.32;98739.28;5056232;28;20060;-48
2022/10/23 09:26:48;;;;;;;4.63;0.80;;;;;;;14.18;84.78;98736.69;5052054;28;20507;-47
2022/10/23 09:29:34;;;;;;;1.27;0.90;;;;;;;14.08;85.04;98731.00;5041514;28;20090;-48
2022/10/23 09:32:05;;;;;;;3.47;1.05;;;;;;;14.09;85.58;98730.91;5044351;28;20052;-51
2022/10/23 09:34:33;;;;;;;1.83;1.10;;;;;;;14.13;85.54;98727.31;5063012;28;20133;-48
2022/10/23 09:37:03;;;;;;;3.40;0.70;;;;;;;14.06;85.17;98720.63;5040094;28;20148;-52
2022/10/23 09:39:34;;;;;;;4.13;0.98;;;;;;;14.10;85.79;98722.19;5046606;28;20045;-48
2022/10/23 09:42:19;;;;;;;3.15;1.17;;;;;;;14.07;85.88;98732.72;5044662;28;20408;-53
2022/10/23 09:44:49;;;;;;;2.30;1.20;;;;;;;14.11;85.60;98742.13;5040801;28;20128;-49
2022/10/23 09:47:19;;;;;;;2.95;1.42;;;;;;;14.01;86.50;98740.75;5037265;28;20049;-49
2022/10/23 09:49:48;;;;;;;1.90;0.80;;;;;;;14.06;86.12;98738.84;5037947;28;20049;-51
2022/10/23 09:54:55;;;;;;;2.80;2.33;;;;;;;14.11;86.79;98747.31;5091363;27;20135;-47
2022/10/23 09:57:43;;;;;;;3.15;2.78;;;;;;;14.09;85.94;98751.72;5013212;28;20140;-51
2022/10/23 10:03:05;;;;;;;4.55;1.80;;;;;;;14.12;86.43;98748.19;5111867;27;20648;-46
2022/10/23 10:05:35;;;;;;;3.50;1.42;;;;;;;14.16;86.44;98756.72;5078524;28;20077;-45
2022/10/23 10:24:11;;;;;;;4.97;2.33;;;;;;;14.08;87.28;98715.38;5096628;27;20382;-51
2022/10/23 10:26:49;;;;;;;3.50;2.03;;;;;;;14.16;86.70;98712.44;5040114;28;20049;-50
2022/10/23 10:42:57;;;;;;;4.72;2.22;;;;;;;14.35;87.08;98692.59;5071717;27;20124;-51
2022/10/23 10:45:49;;;;;;;9.48;3.95;;;;;;;14.42;86.42;98677.53;5009748;28;20503;-53
2022/10/23 10:51:04;;;;;;;7.35;2.72;;;;;;;14.44;86.56;98674.88;5102235;27;20125;-55
2022/10/23 10:53:58;;;;;;;7.57;3.33;;;;;;;14.48;87.11;98656.47;5075478;28;20144;-50
2022/10/23 10:56:28;;;;;;;8.45;3.50;;;;;;;14.52;86.68;98657.16;5063107;28;20056;-52
2022/10/23 10:58:59;;;;;;;4.78;3.60;;;;;;;14.56;86.73;98653.53;5063015;28;20060;-51
2022/10/23 11:01:33;;;;;;;6.28;3.47;;;;;;;14.53;86.85;98643.25;5061691;28;20140;-51
2022/10/23 11:06:37;;;;;;;9.68;4.75;;;;;;;15.04;85.34;98629.84;5091496;27;20403;-48
2022/10/23 11:09:23;;;;;;;6.72;2.85;;;;;;;14.94;86.21;98636.38;5049686;28;20168;-52
2022/10/23 11:11:50;;;;;;;7.60;3.17;;;;;;;15.06;86.42;98635.81;5048534;28;20103;-52
2022/10/23 11:14:26;;;;;;;3.95;2.47;;;;;;;15.09;87.00;98627.88;5070245;28;20063;-52
2022/10/23 11:17:17;;;;;;;6.55;2.90;;;;;;;15.23;86.07;98621.22;5072455;28;20139;-51
2022/10/23 11:19:53;;;;;;;6.18;3.17;;;;;;;15.34;86.03;98623.31;5064310;28;20044;-53
2022/10/23 11:22:47;;;;;;;6.75;3.00;;;;;;;15.33;85.79;98617.25;5073667;28;20052;-52
2022/10/23 11:36:19;;;;;;;7.13;2.42;;;;;;;15.72;84.41;98606.81;5083397;27;20141;-50
2022/10/23 11:38:49;;;;;;;5.25;1.90;;;;;;;15.96;84.92;98610.03;5017579;28;20046;-54
2022/10/23 11:41:24;;;;;;;3.50;1.67;;;;;;;16.12;84.37;98610.16;5030693;28;20077;-52
2022/10/23 11:43:55;;;;;;;;;;;;;;;16.23;85.02;98608.75;5016013;28;20049;-50
2022/10/23 11:49:01;;;;;;;3.53;2.10;;;;;;;16.70;84.07;98610.78;5087057;27;20122;-53
2022/10/23 11:57:13;;;;;;;3.13;0.93;;;;;;;16.82;83.16;98587.53;5079853;27;20465;-48
2022/10/23 12:05:24;;;;;;;2.80;1.67;;;;;;;17.24;82.91;98574.03;5066306;27;20414;-52
2022/10/23 12:07:58;;;;;;;4.72;2.30;;;;;;;17.20;83.26;98566.34;5030800;28;20053;-51
2022/10/23 12:10:30;;;;;;;1.42;0.88;;;;;;;17.11;81.13;98564.25;5027522;28;20060;-52
2022/10/23 12:13:00;;;;;;;2.75;0.80;;;;;;;17.13;81.62;98559.78;5025327;28;20060;-50
2022/10/23 12:15:27;;;;;;;1.67;1.05;;;;;;;17.03;80.71;98563.78;5024043;28;20836;-52
2022/10/23 12:18:07;;;;;;;1.60;1.05;;;;;;;16.98;81.07;98561.41;5029316;28;20073;-49
2022/10/23 12:31:33;;;;;;;3.25;0.50;;;;;;;17.03;78.64;98548.94;5073126;27;20582;-50
2022/10/23 12:37:36;;;;;;;1.75;1.05;;;;;;;17.09;77.80;98521.63;5063909;27;20427;-50
2022/10/23 12:40:08;;;;;;;2.28;2.15;;;;;;;16.95;78.00;98515.34;5032836;28;20045;-47
2022/10/23 12:42:36;;;;;;;4.47;1.83;;;;;;;16.94;78.16;98502.34;5038071;28;20124;-53
2022/10/23 12:45:16;;;;;;;1.92;1.83;;;;;;;16.78;76.64;98505.78;5033892;28;20041;-52
2022/10/23 12:47:45;;;;;;;1.83;1.73;;;;;;;16.73;77.68;98493.88;5032357;28;20053;-49
2022/10/23 12:50:18;;;;;;;1.52;1.30;;;;;;;16.80;78.40;98492.63;5035100;28;20128;-50
2022/10/23 12:53:03;;;;;;;2.45;2.20;;;;;;;16.84;78.44;98491.53;5037280;28;20081;-48
2022/10/23 12:55:47;;;;;;;1.73;1.63;;;;;;;16.93;78.09;98477.13;5044085;28;20132;-52
2022/10/23 12:58:19;;;;;;;1.65;1.55;;;;;;;16.87;76.85;98480.91;5039697;28;20132;-52
2022/10/23 13:00:53;;;;;;;1.05;0.52;;;;;;;16.98;77.27;98487.34;5032351;28;20412;-52
2022/10/23 13:03:23;;;;;;;1.73;1.63;;;;;;;16.96;77.65;98484.81;5031594;28;20294;-51
2022/10/23 13:05:52;;;;;;;1.70;1.60;;;;;;;16.96;77.87;98485.63;5031755;28;20052;-47
2022/10/23 13:08:20;;;;;;;3.50;1.67;;;;;;;16.96;76.87;98485.63;5037390;28;20037;-48
2022/10/23 13:10:48;;;;;;;1.70;1.42;;;;;;;16.93;77.24;98485.81;5029904;28;20115;-53
2022/10/23 13:13:22;;;;;;;2.83;1.83;;;;;;;16.95;77.73;98481.34;5048048;28;20565;-49
2022/10/23 13:15:49;;;;;;;2.20;1.70;;;;;;;16.95;77.14;98478.72;5067425;28;20084;-46
2022/10/23 13:18:17;;;;;;;3.55;1.70;;;;;;;16.95;77.00;98478.72;5067635;28;20083;-53
2022/10/23 13:26:05;;;;;;;1.63;0.60;;;;;;;17.01;77.73;98461.00;5044678;27;20130;-51
2022/10/23 13:28:33;;;;;;;;;;;;;;;16.98;77.31;98459.41;5040573;28;20127;-54
2022/10/23 13:33:42;;;;;;;2.63;1.00;;;;;;;17.14;77.77;98456.81;5087144;27;20124;-52
2022/10/23 13:38:46;;;;;;;3.33;1.73;;;;;;;17.19;76.96;98448.75;5098757;27;20125;-49
2022/10/23 13:41:16;;;;;;;2.75;2.15;;;;;;;17.19;77.04;98443.50;5043697;27;20034;-50
2022/10/23 13:43:44;;;;;;;3.28;1.88;;;;;;;17.11;77.13;98445.69;5040345;28;20486;-51
2022/10/23 13:46:13;;;;;;;2.65;2.15;;;;;;;17.16;77.21;98439.25;5042862;28;20041;-51
2022/10/23 13:48:40;;;;;;;2.45;1.40;;;;;;;17.21;77.89;98432.03;5044865;28;20123;-47
2022/10/23 13:53:50;;;;;;;2.65;1.15;;;;;;;17.29;77.18;98408.03;5092125;27;20125;-52
2022/10/23 13:56:19;;;;;;;1.60;1.00;;;;;;;17.35;77.56;98396.38;5046527;28;20052;-52
2022/10/23 13:58:46;;;;;;;3.55;1.02;;;;;;;17.28;76.91;98390.66;5051716;28;20055;-49
2022/10/23 14:01:32;;;;;;;1.83;0.77;;;;;;;17.21;77.22;98384.94;5037531;28;20132;-53
2022/10/23 14:03:58;;;;;;;3.22;0.82;;;;;;;17.26;76.92;98386.44;5041812;28;20049;-51
2022/10/23 14:06:25;;;;;;;1.73;0.95;;;;;;;17.30;77.14;98383.53;5043115;28;20048;-47
2022/10/23 14:08:52;;;;;;;4.82;1.00;;;;;;;17.31;77.02;98379.16;5043447;28;20083;-52